Station Historical Data
Daily Summary for January 26, 2018 Units:  Metric    English   Both
« Previous Day
Next Day »
Daily Weekly Monthly Yearly Custom
  High: Low: Average:
Temperature: 8.8 °C -5.1 °C 2.2 °C
Dew Point: -0.9 °C -8.3 °C -4.2 °C
Humidity: 78% 48% 64%
Wind Speed: 16.1km/h 0km/h 4.7km/h
Wind Gust: 29km/h - -
Wind- - South
Pressure: 1035.1 hPa 1023.9 hPa -
Precipitation: 0 mm    
Historical Graphs
 
 
Tabular Data for January 26, 2018
Time Temperature Dew Point Pressure Wind Wind Speed Wind Gust Humidity Rainfall Rate (Hourly)
00:00 -2.5 °C -6.7 °C 1035.1 hPa Calm     73% 0 mm
00:05 -2.4 °C -6.6 °C 1035.1 hPa Calm     73% 0 mm
00:10 -2.4 °C -6.4 °C 1035.1 hPa Calm     74% 0 mm
00:15 -2.4 °C -6.4 °C 1035.1 hPa Calm     74% 0 mm
00:20 -2.4 °C -6.4 °C 1035.1 hPa Calm     74% 0 mm
00:25 -2.4 °C -6.4 °C 1035.1 hPa Calm     74% 0 mm
00:30 -2.3 °C -6.3 °C 1035.1 hPa Calm     74% 0 mm
00:35 -2.3 °C -6.3 °C 1035.1 hPa Calm     74% 0 mm
00:40 -2.3 °C -6.3 °C 1035.1 hPa Calm     74% 0 mm
00:45 -2.3 °C -6.5 °C 1035.1 hPa Calm     73% 0 mm
00:50 -2.4 °C -6.4 °C 1035.1 hPa Calm     74% 0 mm
00:55 -2.5 °C -6.5 °C 1035.1 hPa Calm     74% 0 mm
01:00 -2.5 °C -6.5 °C 1035.1 hPa Calm     74% 0 mm
01:05 -2.6 °C -6.6 °C 1035.1 hPa Calm   6.4 km/h 74% 0 mm
01:10 -2.4 °C -6.4 °C 1035.1 hPa SSW 1.6 km/h 6.4 km/h 74% 0 mm
01:15 -2.4 °C -6.6 °C 1035.1 hPa SSW 3.2 km/h 6.4 km/h 73% 0 mm
01:20 -2.4 °C -6.6 °C 1035.1 hPa SSW 3.2 km/h 4.8 km/h 73% 0 mm
01:25 -2.4 °C -6.6 °C 1034.8 hPa SSW 1.6 km/h 4.8 km/h 73% 0 mm
01:30 -2.4 °C -6.6 °C 1035.1 hPa SSW 3.2 km/h 4.8 km/h 73% 0 mm
01:35 -2.5 °C -6.7 °C 1035.1 hPa South 8 km/h 8 km/h 73% 0 mm
01:40 -2.5 °C -6.7 °C 1035.1 hPa South 3.2 km/h 8 km/h 73% 0 mm
01:45 -2.5 °C -6.7 °C 1035.1 hPa South 3.2 km/h 8 km/h 73% 0 mm
01:50 -2.6 °C -6.7 °C 1035.1 hPa South 1.6 km/h 6.4 km/h 73% 0 mm
01:55 -2.6 °C -6.8 °C 1035.1 hPa South 1.6 km/h 6.4 km/h 73% 0 mm
02:00 -2.6 °C -6.8 °C 1035.1 hPa South 1.6 km/h 8 km/h 73% 0 mm
02:05 -2.6 °C -6.8 °C 1035.1 hPa South 3.2 km/h 6.4 km/h 73% 0 mm
02:10 -2.7 °C -6.9 °C 1035.1 hPa South 4.8 km/h 6.4 km/h 73% 0 mm
02:15 -2.8 °C -7 °C 1034.8 hPa South 1.6 km/h 6.4 km/h 73% 0 mm
02:20 -3 °C -7 °C 1034.8 hPa Calm   6.4 km/h 74% 0 mm
02:25 -3.2 °C -7.2 °C 1034.8 hPa South 1.6 km/h 6.4 km/h 74% 0 mm
02:30 -3.3 °C -7.3 °C 1034.8 hPa Calm   4.8 km/h 74% 0 mm
02:35 -3.3 °C -7.3 °C 1034.8 hPa South 1.6 km/h 4.8 km/h 74% 0 mm
02:40 -3.5 °C -7.4 °C 1034.8 hPa South 1.6 km/h 4.8 km/h 74% 0 mm
02:45 -3.6 °C -7.6 °C 1034.8 hPa Calm   3.2 km/h 74% 0 mm
02:50 -3.7 °C -7.5 °C 1034.8 hPa South 1.6 km/h 4.8 km/h 75% 0 mm
02:55 -3.7 °C -7.5 °C 1034.8 hPa South 1.6 km/h 4.8 km/h 75% 0 mm
03:00 -3.8 °C -7.6 °C 1034.8 hPa Calm   4.8 km/h 75% 0 mm
03:05 -3.9 °C -7.7 °C 1034.8 hPa South 3.2 km/h 4.8 km/h 75% 0 mm
03:10 -3.9 °C -7.7 °C 1034.8 hPa Calm   6.4 km/h 75% 0 mm
03:15 -3.9 °C -7.7 °C 1034.8 hPa South 1.6 km/h 4.8 km/h 75% 0 mm
03:20 -4.1 °C -7.8 °C 1034.8 hPa South 1.6 km/h 4.8 km/h 75% 0 mm
03:25 -4.1 °C -7.7 °C 1034.8 hPa South 1.6 km/h 4.8 km/h 76% 0 mm
03:30 -4.2 °C -7.8 °C 1034.8 hPa South 1.6 km/h 6.4 km/h 76% 0 mm
03:35 -4.2 °C -7.8 °C 1034.8 hPa South 1.6 km/h 6.4 km/h 76% 0 mm
03:40 -4.3 °C -7.9 °C 1034.4 hPa Calm   3.2 km/h 76% 0 mm
03:50 -4.4 °C -7.8 °C 1034.4 hPa South 1.6 km/h 6.4 km/h 77% 0 mm
03:55 -4.4 °C -7.8 °C 1034.4 hPa South 1.6 km/h 6.4 km/h 77% 0 mm
04:00 -4.4 °C -7.8 °C 1034.4 hPa South 1.6 km/h 4.8 km/h 77% 0 mm
04:05 -4.4 °C -7.9 °C 1034.4 hPa Calm   6.4 km/h 77% 0 mm
04:10 -4.4 °C -7.9 °C 1034.4 hPa South 1.6 km/h 6.4 km/h 77% 0 mm
04:15 -4.5 °C -7.9 °C 1034.4 hPa South 1.6 km/h 6.4 km/h 77% 0 mm
04:20 -4.6 °C -8 °C 1034.4 hPa Calm   6.4 km/h 77% 0 mm
04:25 -4.6 °C -8 °C 1034.4 hPa SSE 1.6 km/h 6.4 km/h 77% 0 mm
04:30 -4.6 °C -8.1 °C 1034.4 hPa SSE 1.6 km/h 6.4 km/h 77% 0 mm
04:35 -4.7 °C -8.2 °C 1034.4 hPa SSE 1.6 km/h 4.8 km/h 77% 0 mm
04:40 -4.7 °C -8.2 °C 1034.4 hPa Calm   4.8 km/h 77% 0 mm
04:45 -4.7 °C -8 °C 1034.1 hPa SSE 3.2 km/h 4.8 km/h 78% 0 mm
04:50 -4.8 °C -8 °C 1034.1 hPa SSE 3.2 km/h 6.4 km/h 78% 0 mm
04:55 -4.8 °C -8 °C 1034.1 hPa SSE 1.6 km/h 6.4 km/h 78% 0 mm
05:00 -4.8 °C -8 °C 1034.1 hPa SSE 1.6 km/h 6.4 km/h 78% 0 mm
05:05 -4.8 °C -8 °C 1034.1 hPa SE 3.2 km/h 6.4 km/h 78% 0 mm
05:10 -4.8 °C -8.2 °C 1034.1 hPa SE 3.2 km/h 6.4 km/h 77% 0 mm
05:15 -4.9 °C -8.1 °C 1034.1 hPa SE 1.6 km/h 6.4 km/h 78% 0 mm
05:20 -4.9 °C -8.2 °C 1034.1 hPa SE 1.6 km/h 6.4 km/h 78% 0 mm
05:25 -4.9 °C -8.2 °C 1034.1 hPa SE 3.2 km/h 6.4 km/h 78% 0 mm
05:30 -5 °C -8.2 °C 1034.1 hPa Calm   6.4 km/h 78% 0 mm
05:35 -5 °C -8.2 °C 1034.1 hPa SE 3.2 km/h 6.4 km/h 78% 0 mm
05:40 -5 °C -8.2 °C 1033.7 hPa SE 3.2 km/h 8 km/h 78% 0 mm
05:45 -5 °C -8.2 °C 1033.7 hPa SE 4.8 km/h 8 km/h 78% 0 mm
05:50 -5 °C -8.2 °C 1033.7 hPa SE 3.2 km/h 8 km/h 78% 0 mm
05:55 -5 °C -8.2 °C 1033.7 hPa SE 4.8 km/h 8 km/h 78% 0 mm
06:00 -5 °C -8.2 °C 1033.7 hPa SE 3.2 km/h 8 km/h 78% 0 mm
06:05 -4.9 °C -8.2 °C 1033.7 hPa SE 3.2 km/h 8 km/h 78% 0 mm
06:10 -4.9 °C -8.2 °C 1033.7 hPa SE 3.2 km/h 8 km/h 78% 0 mm
06:15 -5.1 °C -8.3 °C 1033.7 hPa SE 1.6 km/h 6.4 km/h 78% 0 mm
06:20 -5.1 °C -8.3 °C 1033.7 hPa SE 1.6 km/h 6.4 km/h 78% 0 mm
06:25 -5 °C -8.2 °C 1033.7 hPa ESE 1.6 km/h 6.4 km/h 78% 0 mm
06:30 -5 °C -8.2 °C 1033.7 hPa ESE 1.6 km/h 8 km/h 78% 0 mm
06:35 -5 °C -8.2 °C 1033.7 hPa ESE 1.6 km/h 8 km/h 78% 0 mm
06:40 -5 °C -8.2 °C 1033.7 hPa ESE 1.6 km/h 6.4 km/h 78% 0 mm
06:45 -5 °C -8.2 °C 1033.7 hPa Calm   8 km/h 78% 0 mm
06:50 -5 °C -8.2 °C 1033.7 hPa ESE 4.8 km/h 11.3 km/h 78% 0 mm
06:55 -4.9 °C -8.2 °C 1033.7 hPa ESE 1.6 km/h 8 km/h 78% 0 mm
07:00 -4.9 °C -8.1 °C 1033.7 hPa ESE 3.2 km/h 8 km/h 78% 0 mm
07:05 -4.9 °C -8.1 °C 1033.7 hPa ESE 3.2 km/h 8 km/h 78% 0 mm
07:10 -4.9 °C -8.1 °C 1033.4 hPa ESE 3.2 km/h 8 km/h 78% 0 mm
07:15 -4.9 °C -8.1 °C 1033.7 hPa ESE 3.2 km/h 11.3 km/h 78% 0 mm
07:20 -4.8 °C -8.1 °C 1033.4 hPa ESE 3.2 km/h 11.3 km/h 78% 0 mm
07:25 -4.8 °C -8 °C 1033.4 hPa ESE 3.2 km/h 8 km/h 78% 0 mm
07:30 -4.8 °C -8 °C 1033.4 hPa ESE 3.2 km/h 9.7 km/h 78% 0 mm
07:35 -4.7 °C -8.2 °C 1033.4 hPa ESE 4.8 km/h 8 km/h 77% 0 mm
07:40 -4.7 °C -8 °C 1033.4 hPa ESE 1.6 km/h 9.7 km/h 78% 0 mm
07:45 -4.7 °C -8.1 °C 1033.4 hPa ESE 3.2 km/h 8 km/h 77% 0 mm
07:50 -4.6 °C -8.1 °C 1033.4 hPa ESE 1.6 km/h 6.4 km/h 77% 0 mm
07:55 -4.6 °C -8.1 °C 1033.4 hPa Calm   6.4 km/h 77% 0 mm
08:00 -4.6 °C -8.1 °C 1033.4 hPa East 1.6 km/h 11.3 km/h 77% 0 mm
08:05 -4.6 °C -7.8 °C 1033.4 hPa ESE 3.2 km/h 11.3 km/h 78% 0 mm
08:10 -4.4 °C -7.9 °C 1033.4 hPa ESE 3.2 km/h 8 km/h 77% 0 mm
08:15 -4.4 °C -7.9 °C 1033.4 hPa ESE 1.6 km/h 8 km/h 77% 0 mm
08:20 -4.3 °C -7.7 °C 1033.4 hPa ESE 1.6 km/h 9.7 km/h 77% 0 mm
08:25 -4.1 °C -7.6 °C 1033.1 hPa ESE 3.2 km/h 9.7 km/h 77% 0 mm
08:30 -3.9 °C -7.4 °C 1033.1 hPa ESE 3.2 km/h 8 km/h 77% 0 mm
08:35 -3.8 °C -7.4 °C 1033.1 hPa ESE 3.2 km/h 8 km/h 76% 0 mm
08:40 -3.7 °C -7.3 °C 1033.1 hPa Calm   8 km/h 76% 0 mm
08:45 -3.5 °C -7.1 °C 1033.1 hPa SE 1.6 km/h 6.4 km/h 76% 0 mm
08:50 -3.3 °C -7.1 °C 1033.1 hPa Calm   4.8 km/h 75% 0 mm
08:55 -3.1 °C -6.9 °C 1033.1 hPa ESE 3.2 km/h 11.3 km/h 75% 0 mm
09:00 -2.8 °C -6.8 °C 1033.1 hPa ESE 3.2 km/h 8 km/h 74% 0 mm
09:05 -2.6 °C -6.6 °C 1033.1 hPa ESE 1.6 km/h 8 km/h 74% 0 mm
09:10 -2.4 °C -6.6 °C 1032.7 hPa ESE 3.2 km/h 8 km/h 73% 0 mm
09:15 -2.2 °C -6.3 °C 1033.1 hPa SE 3.2 km/h 11.3 km/h 73% 0 mm
09:20 -2 °C -6.4 °C 1033.1 hPa South 3.2 km/h 9.7 km/h 72% 0 mm
09:25 -1.7 °C -6.1 °C 1033.1 hPa SE 4.8 km/h 9.7 km/h 72% 0 mm
09:30 -1.5 °C -6.1 °C 1032.7 hPa SE 4.8 km/h 9.7 km/h 71% 0 mm
09:35 -1.3 °C -6.1 °C 1032.7 hPa SE 4.8 km/h 9.7 km/h 70% 0 mm
09:40 -1.1 °C -5.8 °C 1032.7 hPa SSE 4.8 km/h 9.7 km/h 70% 0 mm
09:45 -0.6 °C -5.6 °C 1032.7 hPa SE 6.4 km/h 6.4 km/h 69% 0 mm
09:50 -0.4 °C -5.4 °C 1032.7 hPa SE 1.6 km/h 9.7 km/h 69% 0 mm
09:55 -0.1 °C -5.3 °C 1032.7 hPa SE 6.4 km/h 9.7 km/h 68% 0 mm
10:00 0.1 °C -5.3 °C 1032.7 hPa ESE 3.2 km/h 8 km/h 67% 0 mm
10:05 0.3 °C -5.3 °C 1032.7 hPa SE 9.7 km/h 11.3 km/h 66% 0 mm
10:10 0.5 °C -5.1 °C 1032.7 hPa SE 4.8 km/h 11.3 km/h 66% 0 mm
10:15 0.8 °C -4.8 °C 1032.4 hPa SE 4.8 km/h 9.7 km/h 66% 0 mm
10:20 1.1 °C -4.7 °C 1032.4 hPa SE 4.8 km/h 8 km/h 65% 0 mm
10:25 1.6 °C -4.5 °C 1032.4 hPa SSE 3.2 km/h 8 km/h 64% 0 mm
10:30 1.9 °C -4.2 °C 1032.4 hPa SE 3.2 km/h 8 km/h 64% 0 mm
10:35 2.3 °C -4.1 °C 1032.4 hPa SSE 1.6 km/h 9.7 km/h 63% 0 mm
10:40 2.7 °C -3.6 °C 1032.4 hPa SSE 6.4 km/h 8 km/h 63% 0 mm
10:45 2.9 °C -4.1 °C 1032.4 hPa South 6.4 km/h 9.7 km/h 60% 0 mm
10:50 3.2 °C -3.6 °C 1032.4 hPa South 4.8 km/h 12.9 km/h 61% 0 mm
10:55 3.5 °C -3.8 °C 1032.4 hPa SSW 6.4 km/h 16.1 km/h 59% 0 mm
11:00 3.7 °C -3.8 °C 1032.1 hPa South 8 km/h 12.9 km/h 58% 0 mm
11:05 4.1 °C -3.5 °C 1032.1 hPa SSE 9.7 km/h 12.9 km/h 58% 0 mm
11:10 4 °C -3.6 °C 1032.1 hPa South 6.4 km/h 16.1 km/h 58% 0 mm
11:15 4.1 °C -3.7 °C 1031.7 hPa South 8 km/h 16.1 km/h 57% 0 mm
11:20 4.3 °C -3.5 °C 1031.7 hPa South 8 km/h 14.5 km/h 57% 0 mm
11:25 4.7 °C -3.3 °C 1031.7 hPa SSW 6.4 km/h 14.5 km/h 56% 0 mm
11:30 4.7 °C -3.4 °C 1031.7 hPa South 8 km/h 14.5 km/h 56% 0 mm
11:35 4.7 °C -3.6 °C 1031.4 hPa SSW 8 km/h 14.5 km/h 55% 0 mm
11:40 4.7 °C -3.3 °C 1031.4 hPa SSW 6.4 km/h 12.9 km/h 56% 0 mm
11:45 4.8 °C -3.2 °C 1031.4 hPa SSW 6.4 km/h 11.3 km/h 56% 0 mm
11:50 5.1 °C -3 °C 1031 hPa South 11.3 km/h 12.9 km/h 56% 0 mm
11:55 5.2 °C -3.1 °C 1030.7 hPa South 8 km/h 12.9 km/h 55% 0 mm
12:00 5.5 °C -3.1 °C 1030.7 hPa South 8 km/h 11.3 km/h 54% 0 mm
12:05 5.6 °C -3.1 °C 1030.7 hPa South 4.8 km/h 11.3 km/h 54% 0 mm
12:10 5.8 °C -2.8 °C 1030.7 hPa SW 3.2 km/h 11.3 km/h 54% 0 mm
12:15 6.2 °C -2.4 °C 1030.4 hPa SSW 6.4 km/h 11.3 km/h 54% 0 mm
12:20 6.2 °C -2.7 °C 1030.4 hPa SSW 4.8 km/h 12.9 km/h 53% 0 mm
12:25 6.3 °C -2.6 °C 1030.4 hPa SSW 6.4 km/h 12.9 km/h 53% 0 mm
12:30 6.4 °C -2.4 °C 1030.4 hPa SSW 6.4 km/h 14.5 km/h 53% 0 mm
12:35 6.8 °C -2.2 °C 1030 hPa SSW 6.4 km/h 14.5 km/h 53% 0 mm
12:40 6.8 °C -2.3 °C 1030 hPa South 6.4 km/h 11.3 km/h 52% 0 mm
12:45 6.9 °C -2.3 °C 1030 hPa SSW 8 km/h 12.9 km/h 52% 0 mm
12:50 7 °C -2.2 °C 1030 hPa SE 11.3 km/h 11.3 km/h 52% 0 mm
12:55 6.8 °C -2.3 °C 1029.7 hPa South 9.7 km/h 14.5 km/h 52% 0 mm
13:00 6.9 °C -2.2 °C 1029.7 hPa South 3.2 km/h 12.9 km/h 52% 0 mm
13:05 7.3 °C -1.9 °C 1029.7 hPa South 8 km/h 11.3 km/h 52% 0 mm
13:10 7.3 °C -2.2 °C 1029.7 hPa SSW 6.4 km/h 14.5 km/h 51% 0 mm
13:15 7.5 °C -2 °C 1029.7 hPa SSW 6.4 km/h 14.5 km/h 51% 0 mm
13:20 7.6 °C -1.7 °C 1029.7 hPa SSW 6.4 km/h 11.3 km/h 52% 0 mm
13:25 7.9 °C -1.6 °C 1029.7 hPa South 4.8 km/h 9.7 km/h 51% 0 mm
13:30 8.1 °C -1.8 °C 1029.3 hPa SSW 4.8 km/h 12.9 km/h 50% 0 mm
13:35 7.9 °C -1.9 °C 1029.3 hPa SSW 6.4 km/h 12.9 km/h 50% 0 mm
13:40 7.9 °C -1.8 °C 1029.3 hPa SW 4.8 km/h 12.9 km/h 50% 0 mm
13:45 8.1 °C -1.5 °C 1029.3 hPa SSW 6.4 km/h 14.5 km/h 51% 0 mm
13:50 8.2 °C -1.4 °C 1029 hPa SSW 4.8 km/h 16.1 km/h 51% 0 mm
13:55 8.3 °C -1.5 °C 1029 hPa SSE 9.7 km/h 12.9 km/h 50% 0 mm
14:00 8.4 °C -1.7 °C 1029 hPa South 11.3 km/h 17.7 km/h 49% 0 mm
14:05 8.3 °C -1.5 °C 1029 hPa South 11.3 km/h 17.7 km/h 50% 0 mm
14:10 8.4 °C -1.2 °C 1028.7 hPa South 6.4 km/h 16.1 km/h 51% 0 mm
14:15 8.6 °C -1.3 °C 1028.7 hPa South 8 km/h 16.1 km/h 50% 0 mm
14:20 8.6 °C -1.5 °C 1028.7 hPa South 8 km/h 16.1 km/h 49% 0 mm
14:25 8.7 °C -1.4 °C 1028.7 hPa SSW 6.4 km/h 14.5 km/h 49% 0 mm
14:30 8.7 °C -1.4 °C 1028.7 hPa SW 9.7 km/h 12.9 km/h 49% 0 mm
14:35 8.7 °C -1.2 °C 1028.7 hPa WSW 6.4 km/h 14.5 km/h 50% 0 mm
14:40 8.6 °C -1.5 °C 1028.7 hPa SSW 8 km/h 17.7 km/h 49% 0 mm
14:45 8.4 °C -1.4 °C 1028.3 hPa South 11.3 km/h 20.9 km/h 50% 0 mm
14:50 8.3 °C -1.5 °C 1028.3 hPa South 16.1 km/h 17.7 km/h 50% 0 mm
14:55 8.6 °C -1 °C 1028.3 hPa SW 12.9 km/h 16.1 km/h 51% 0 mm
15:00 8.7 °C -0.9 °C 1028.3 hPa SSW 6.4 km/h 17.7 km/h 51% 0 mm
15:05 8.8 °C -1.1 °C 1028.3 hPa South 9.7 km/h 16.1 km/h 50% 0 mm
15:10 8.6 °C -1.5 °C 1028.3 hPa SSW 8 km/h 14.5 km/h 49% 0 mm
15:15 8.6 °C -1.2 °C 1028.3 hPa SSW 8 km/h 14.5 km/h 50% 0 mm
15:20 8.8 °C -1.1 °C 1028.3 hPa SSW 6.4 km/h 14.5 km/h 50% 0 mm
15:25 8.7 °C -1.2 °C 1028.3 hPa SSE 11.3 km/h 14.5 km/h 50% 0 mm
15:35 8.7 °C -1.2 °C 1028.3 hPa SSW 6.4 km/h 19.3 km/h 50% 0 mm
15:40 8.6 °C -1.3 °C 1028.3 hPa SW 11.3 km/h 12.9 km/h 50% 0 mm
15:45 8.6 °C -1.2 °C 1028.3 hPa SW 6.4 km/h 9.7 km/h 50% 0 mm
15:50 8.5 °C -1.3 °C 1028.3 hPa SSW 6.4 km/h 17.7 km/h 50% 0 mm
15:55 8.3 °C -1.2 °C 1028.3 hPa SSW 3.2 km/h 12.9 km/h 51% 0 mm
16:00 8.3 °C -1.2 °C 1028.3 hPa SSW 6.4 km/h 17.7 km/h 51% 0 mm
16:05 8.2 °C -1.4 °C 1028.3 hPa SSW 6.4 km/h 17.7 km/h 51% 0 mm
16:10 8.1 °C -1.2 °C 1028 hPa SW 8 km/h 16.1 km/h 52% 0 mm
16:15 8.1 °C -1.2 °C 1028 hPa South 3.2 km/h 12.9 km/h 52% 0 mm
16:20 8 °C -1.3 °C 1028 hPa SSW 6.4 km/h 12.9 km/h 52% 0 mm
16:25 7.8 °C -1.4 °C 1028 hPa SSW 6.4 km/h 12.9 km/h 52% 0 mm
16:30 7.7 °C -1.3 °C 1028 hPa SSW 6.4 km/h 12.9 km/h 53% 0 mm
16:35 7.6 °C -1.4 °C 1028 hPa SSW 4.8 km/h 12.9 km/h 53% 0 mm
16:40 7.4 °C -1.3 °C 1028 hPa SSW 6.4 km/h 12.9 km/h 54% 0 mm
16:45 7.3 °C -1.4 °C 1027.7 hPa South 6.4 km/h 8 km/h 54% 0 mm
16:50 7.1 °C -1.4 °C 1028 hPa South 4.8 km/h 8 km/h 55% 0 mm
16:55 6.9 °C -1.6 °C 1028 hPa South 4.8 km/h 12.9 km/h 55% 0 mm
17:00 6.8 °C -1.3 °C 1028 hPa SSW 4.8 km/h 9.7 km/h 56% 0 mm
17:05 6.7 °C -1.5 °C 1028 hPa SSW 4.8 km/h 9.7 km/h 56% 0 mm
17:10 6.6 °C -1.6 °C 1028 hPa South 1.6 km/h 8 km/h 56% 0 mm
17:15 6.4 °C -1.5 °C 1028 hPa SSW 1.6 km/h 6.4 km/h 57% 0 mm
17:20 6.3 °C -1.6 °C 1028 hPa South 1.6 km/h 8 km/h 57% 0 mm
17:25 6.2 °C -1.7 °C 1027.7 hPa South 3.2 km/h 8 km/h 57% 0 mm
17:30 6.1 °C -1.6 °C 1027.7 hPa South 3.2 km/h 6.4 km/h 58% 0 mm
17:35 6.1 °C -1.6 °C 1027.7 hPa South 3.2 km/h 6.4 km/h 58% 0 mm
17:40 6 °C -1.7 °C 1027.7 hPa SSE 3.2 km/h 6.4 km/h 58% 0 mm
17:45 6 °C -1.7 °C 1027.7 hPa SSE 1.6 km/h 4.8 km/h 58% 0 mm
17:50 5.8 °C -1.8 °C 1027.7 hPa Calm   3.2 km/h 58% 0 mm
17:55 5.7 °C -1.7 °C 1027.3 hPa SSE 4.8 km/h 4.8 km/h 59% 0 mm
18:00 5.6 °C -1.8 °C 1027.3 hPa SSE 1.6 km/h 4.8 km/h 59% 0 mm
18:04 5.5 °C -1.7 °C 1027.3 hPa Calm   4.8 km/h 60% 0 mm
18:10 5.5 °C -1.7 °C 1027.3 hPa Calm   6.4 km/h 60% 0 mm
18:15 5.4 °C -1.5 °C 1027.3 hPa SSE 1.6 km/h 8 km/h 61% 0 mm
18:20 5.4 °C -1.6 °C 1027.3 hPa SSE 4.8 km/h 6.4 km/h 61% 0 mm
18:25 5.3 °C -1.6 °C 1027.3 hPa SSE 1.6 km/h 6.4 km/h 61% 0 mm
18:30 5.3 °C -1.4 °C 1027.3 hPa SSE 3.2 km/h 8 km/h 62% 0 mm
18:35 5.3 °C -1.7 °C 1027 hPa SSE 3.2 km/h 8 km/h 61% 0 mm
18:40 5.2 °C -1.5 °C 1027 hPa SSE 3.2 km/h 8 km/h 62% 0 mm
18:45 5.3 °C -1.7 °C 1027 hPa South 3.2 km/h 8 km/h 61% 0 mm
18:50 5.3 °C -1.7 °C 1027 hPa South 4.8 km/h 8 km/h 61% 0 mm
18:55 5.2 °C -1.7 °C 1027 hPa South 3.2 km/h 8 km/h 61% 0 mm
19:00 5.1 °C -1.6 °C 1026.6 hPa South 4.8 km/h 9.7 km/h 62% 0 mm
19:05 5.1 °C -1.6 °C 1026.6 hPa South 4.8 km/h 9.7 km/h 62% 0 mm
19:10 5.1 °C -1.6 °C 1026.6 hPa South 4.8 km/h 9.7 km/h 62% 0 mm
19:14 4.8 °C -1.8 °C 1026.6 hPa South 4.8 km/h 6.4 km/h 62% 0 mm
19:20 4.6 °C -1.8 °C 1026.3 hPa SSW 1.6 km/h 9.7 km/h 63% 0 mm
19:25 4.8 °C -1.7 °C 1026.6 hPa South 8 km/h 9.7 km/h 63% 0 mm
19:30 4.8 °C -1.7 °C 1026.3 hPa South 4.8 km/h 8 km/h 63% 0 mm
19:35 4.8 °C -1.7 °C 1026.3 hPa SSW 11.3 km/h 11.3 km/h 63% 0 mm
19:39 5.1 °C -1.6 °C 1026.3 hPa South 4.8 km/h 11.3 km/h 62% 0 mm
19:45 5.3 °C -1.7 °C 1026.3 hPa SSW 4.8 km/h 11.3 km/h 61% 0 mm
19:50 5.5 °C -1.4 °C 1026.3 hPa South 8 km/h 11.3 km/h 61% 0 mm
19:55 5.8 °C -1.3 °C 1026.3 hPa SSW 6.4 km/h 12.9 km/h 60% 0 mm
20:00 6 °C -1.2 °C 1026.3 hPa SSW 6.4 km/h 16.1 km/h 60% 0 mm
20:05 6.1 °C -1.3 °C 1026.3 hPa SSW 6.4 km/h 16.1 km/h 59% 0 mm
20:10 6.1 °C -1.3 °C 1026.3 hPa SSW 6.4 km/h 16.1 km/h 59% 0 mm
20:14 6.2 °C -1.2 °C 1026.3 hPa SSW 6.4 km/h 14.5 km/h 59% 0 mm
20:19 6.3 °C -1.2 °C 1026.3 hPa SSW 3.2 km/h 14.5 km/h 59% 0 mm
20:25 6.3 °C -1.1 °C 1026.3 hPa South 4.8 km/h 11.3 km/h 59% 0 mm
20:30 6.4 °C -1 °C 1026.3 hPa SSW 4.8 km/h 16.1 km/h 59% 0 mm
20:35 6.6 °C -1.1 °C 1026.3 hPa South 4.8 km/h 12.9 km/h 58% 0 mm
20:40 6.7 °C -0.9 °C 1026 hPa SW 3.2 km/h 16.1 km/h 58% 0 mm
20:45 6.8 °C -1.1 °C 1026 hPa SSW 6.4 km/h 20.9 km/h 57% 0 mm
20:49 7 °C -0.9 °C 1026 hPa SSW 8 km/h 20.9 km/h 57% 0 mm
20:54 7.1 °C -1.1 °C 1026 hPa SSW 8 km/h 22.5 km/h 56% 0 mm
21:00 7.2 °C -1.1 °C 1026 hPa SSW 8 km/h 22.5 km/h 56% 0 mm
21:05 7.1 °C -1.1 °C 1026 hPa SSW 6.4 km/h 22.5 km/h 56% 0 mm
21:09 7.1 °C -1.1 °C 1026.3 hPa South 12.9 km/h 16.1 km/h 56% 0 mm
21:14 7.1 °C -1.1 °C 1026 hPa South 4.8 km/h 16.1 km/h 56% 0 mm
21:19 7.2 °C -1.3 °C 1026 hPa West 12.9 km/h 17.7 km/h 55% 0 mm
21:24 7.1 °C -1.3 °C 1026 hPa SSW 8 km/h 17.7 km/h 55% 0 mm
21:30 7.1 °C -1.3 °C 1026 hPa SSW 8 km/h 24.1 km/h 55% 0 mm
21:35 7.2 °C -1.3 °C 1025.6 hPa SSW 6.4 km/h 14.5 km/h 55% 0 mm
21:40 7.3 °C -1.4 °C 1025.6 hPa SSW 8 km/h 16.1 km/h 54% 0 mm
21:45 7.3 °C -1.4 °C 1025.6 hPa South 11.3 km/h 22.5 km/h 54% 0 mm
21:50 7.3 °C -1.4 °C 1025.6 hPa SSW 4.8 km/h 22.5 km/h 54% 0 mm
21:54 7.3 °C -1.4 °C 1025.6 hPa SSW 8 km/h 22.5 km/h 54% 0 mm
21:59 7.3 °C -1.4 °C 1025.6 hPa SSW 9.7 km/h 29 km/h 54% 0 mm
22:04 7.3 °C -1.6 °C 1025.6 hPa South 12.9 km/h 24.1 km/h 53% 0 mm
22:09 7.4 °C -1.5 °C 1025.3 hPa SW 12.9 km/h 20.9 km/h 53% 0 mm
22:14 7.4 °C -1.5 °C 1025.3 hPa South 6.4 km/h 17.7 km/h 53% 0 mm
22:19 7.4 °C -1.6 °C 1025.3 hPa South 6.4 km/h 20.9 km/h 53% 0 mm
22:24 7.4 °C -1.8 °C 1024.9 hPa SSW 9.7 km/h 22.5 km/h 52% 0 mm
22:29 7.5 °C -1.7 °C 1024.9 hPa SSW 11.3 km/h 22.5 km/h 52% 0 mm
22:35 7.4 °C -1.8 °C 1024.9 hPa SSW 9.7 km/h 20.9 km/h 52% 0 mm
22:40 7.4 °C -1.8 °C 1024.9 hPa SSW 6.4 km/h 25.7 km/h 52% 0 mm
22:45 7.4 °C -1.8 °C 1024.9 hPa SSW 9.7 km/h 17.7 km/h 52% 0 mm
22:50 7.4 °C -1.8 °C 1024.9 hPa SSW 9.7 km/h 14.5 km/h 52% 0 mm
22:55 7.3 °C -1.9 °C 1024.6 hPa South 8 km/h 20.9 km/h 52% 0 mm
22:59 7.4 °C -1.8 °C 1024.6 hPa SSW 9.7 km/h 24.1 km/h 52% 0 mm
23:04 7.6 °C -1.9 °C 1024.6 hPa SSW 11.3 km/h 25.7 km/h 51% 0 mm
23:10 7.7 °C -2.1 °C 1024.6 hPa SSW 11.3 km/h 25.7 km/h 50% 0 mm
23:15 7.7 °C -2.1 °C 1024.6 hPa SSW 11.3 km/h 25.7 km/h 50% 0 mm
23:19 7.8 °C -2 °C 1024.3 hPa SW 8 km/h 27.4 km/h 50% 0 mm
23:24 7.8 °C -2.3 °C 1024.3 hPa SSW 6.4 km/h 24.1 km/h 49% 0 mm
23:29 7.8 °C -2.3 °C 1024.3 hPa South 8 km/h 20.9 km/h 49% 0 mm
23:34 7.8 °C -2.3 °C 1023.9 hPa SSW 9.7 km/h 25.7 km/h 49% 0 mm
23:39 7.8 °C -2.2 °C 1024.3 hPa SSW 9.7 km/h 25.7 km/h 49% 0 mm
23:44 7.9 °C -2.4 °C 1024.3 hPa SSW 8 km/h 22.5 km/h 48% 0 mm
23:49 8 °C -2.3 °C 1023.9 hPa SSW 6.4 km/h 20.9 km/h 48% 0 mm
23:55 8.1 °C -2.3 °C 1024.3 hPa South 12.9 km/h 22.5 km/h 48% 0 mm
Buffalo, New York, USA
Compliments of Weather Underground - 2.5 mb